sensor_id;sensor_type;location;lat;lon;timestamp;pressure;altitude;pressure_sealevel;temperature;humidity
65131;BME280;51709;54.912;8.316;2023-06-22T00:05:07;101867.56;;;18.48;70.43
65131;BME280;51709;54.912;8.316;2023-06-22T00:10:27;101863.09;;;18.47;70.65
65131;BME280;51709;54.912;8.316;2023-06-22T00:15:48;101872.88;;;18.50;70.69
65131;BME280;51709;54.912;8.316;2023-06-22T00:21:09;101873.78;;;18.42;70.71
65131;BME280;51709;54.912;8.316;2023-06-22T00:26:29;101876.53;;;18.42;70.95
65131;BME280;51709;54.912;8.316;2023-06-22T00:31:50;101882.56;;;18.38;70.92
65131;BME280;51709;54.912;8.316;2023-06-22T00:37:11;101884.34;;;18.31;71.15
65131;BME280;51709;54.912;8.316;2023-06-22T00:42:32;101892.31;;;18.26;71.10
65131;BME280;51709;54.912;8.316;2023-06-22T00:47:53;101876.44;;;18.28;71.11
65131;BME280;51709;54.912;8.316;2023-06-22T00:53:15;101879.03;;;18.29;71.15
65131;BME280;51709;54.912;8.316;2023-06-22T00:58:38;101888.50;;;18.27;71.08
65131;BME280;51709;54.912;8.316;2023-06-22T01:04:02;101899.13;;;18.30;71.28
65131;BME280;51709;54.912;8.316;2023-06-22T01:09:28;101891.94;;;18.29;71.37
65131;BME280;51709;54.912;8.316;2023-06-22T01:16:07;101879.88;;;18.30;71.61
65131;BME280;51709;54.912;8.316;2023-06-22T01:21:04;101882.28;;;18.33;71.46
65131;BME280;51709;54.912;8.316;2023-06-22T01:31:56;101891.22;;;18.35;71.23
65131;BME280;51709;54.912;8.316;2023-06-22T01:37:18;101890.69;;;18.31;71.50
65131;BME280;51709;54.912;8.316;2023-06-22T01:42:39;101891.94;;;18.29;71.64
65131;BME280;51709;54.912;8.316;2023-06-22T01:48:00;101889.00;;;18.30;71.64
65131;BME280;51709;54.912;8.316;2023-06-22T01:53:22;101882.81;;;18.28;71.47
65131;BME280;51709;54.912;8.316;2023-06-22T01:59:01;101885.06;;;18.25;71.82
65131;BME280;51709;54.912;8.316;2023-06-22T02:04:33;101889.44;;;17.89;72.61
65131;BME280;51709;54.912;8.316;2023-06-22T02:09:56;101889.50;;;17.72;73.21
65131;BME280;51709;54.912;8.316;2023-06-22T02:15:18;101884.22;;;17.63;73.23
65131;BME280;51709;54.912;8.316;2023-06-22T02:20:39;101890.28;;;17.58;73.62
65131;BME280;51709;54.912;8.316;2023-06-22T02:26:03;101891.47;;;17.56;73.62
65131;BME280;51709;54.912;8.316;2023-06-22T02:31:24;101899.38;;;17.59;73.78
65131;BME280;51709;54.912;8.316;2023-06-22T02:36:51;101896.81;;;17.57;73.79
65131;BME280;51709;54.912;8.316;2023-06-22T02:42:12;101905.38;;;17.62;73.94
65131;BME280;51709;54.912;8.316;2023-06-22T02:47:32;101896.94;;;17.64;73.78
65131;BME280;51709;54.912;8.316;2023-06-22T02:52:53;101900.56;;;17.64;73.81
65131;BME280;51709;54.912;8.316;2023-06-22T02:58:15;101901.59;;;17.63;74.10
65131;BME280;51709;54.912;8.316;2023-06-22T03:03:36;101894.03;;;17.65;74.03
65131;BME280;51709;54.912;8.316;2023-06-22T03:08:59;101888.53;;;17.65;74.16
65131;BME280;51709;54.912;8.316;2023-06-22T03:14:22;101888.03;;;17.62;74.24
65131;BME280;51709;54.912;8.316;2023-06-22T03:19:44;101884.78;;;17.58;74.34
65131;BME280;51709;54.912;8.316;2023-06-22T03:25:06;101885.78;;;17.65;74.20
65131;BME280;51709;54.912;8.316;2023-06-22T03:30:37;101890.97;;;17.60;74.29
65131;BME280;51709;54.912;8.316;2023-06-22T03:35:59;101896.81;;;17.57;74.30
65131;BME280;51709;54.912;8.316;2023-06-22T03:41:19;101889.59;;;17.56;74.47
65131;BME280;51709;54.912;8.316;2023-06-22T03:46:43;101903.66;;;17.61;74.55
65131;BME280;51709;54.912;8.316;2023-06-22T03:52:05;101895.91;;;17.65;74.63
65131;BME280;51709;54.912;8.316;2023-06-22T03:57:25;101908.94;;;17.71;74.42
65131;BME280;51709;54.912;8.316;2023-06-22T04:02:46;101912.56;;;17.71;74.54
65131;BME280;51709;54.912;8.316;2023-06-22T04:08:07;101909.44;;;17.74;74.67
65131;BME280;51709;54.912;8.316;2023-06-22T04:13:28;101912.88;;;17.77;74.60
65131;BME280;51709;54.912;8.316;2023-06-22T04:18:48;101914.25;;;17.81;74.70
65131;BME280;51709;54.912;8.316;2023-06-22T04:24:09;101917.47;;;17.84;74.74
65131;BME280;51709;54.912;8.316;2023-06-22T04:29:30;101916.59;;;17.92;74.78
65131;BME280;51709;54.912;8.316;2023-06-22T04:34:50;101921.00;;;18.01;74.69
65131;BME280;51709;54.912;8.316;2023-06-22T04:40:13;101923.56;;;18.02;74.62
65131;BME280;51709;54.912;8.316;2023-06-22T04:45:35;101928.16;;;18.10;74.79
65131;BME280;51709;54.912;8.316;2023-06-22T04:51:01;101926.03;;;18.20;74.65
65131;BME280;51709;54.912;8.316;2023-06-22T04:56:24;101930.66;;;18.27;74.64
65131;BME280;51709;54.912;8.316;2023-06-22T05:01:48;101922.31;;;18.43;74.42
65131;BME280;51709;54.912;8.316;2023-06-22T05:07:09;101929.28;;;18.54;74.45
65131;BME280;51709;54.912;8.316;2023-06-22T05:12:30;101927.19;;;18.56;74.27
65131;BME280;51709;54.912;8.316;2023-06-22T05:17:51;101919.91;;;18.63;74.64
65131;BME280;51709;54.912;8.316;2023-06-22T05:23:12;101930.75;;;18.64;74.77
65131;BME280;51709;54.912;8.316;2023-06-22T05:28:33;101932.56;;;18.72;74.59
65131;BME280;51709;54.912;8.316;2023-06-22T05:33:55;101932.28;;;18.67;74.69
65131;BME280;51709;54.912;8.316;2023-06-22T05:39:15;101936.34;;;18.71;74.87
65131;BME280;51709;54.912;8.316;2023-06-22T05:44:36;101936.84;;;18.74;74.88
65131;BME280;51709;54.912;8.316;2023-06-22T05:49:59;101935.63;;;18.77;75.14
65131;BME280;51709;54.912;8.316;2023-06-22T05:55:19;101922.72;;;18.77;74.99
65131;BME280;51709;54.912;8.316;2023-06-22T06:00:40;101937.94;;;18.88;75.05
65131;BME280;51709;54.912;8.316;2023-06-22T06:06:01;101949.03;;;19.17;74.85
65131;BME280;51709;54.912;8.316;2023-06-22T06:11:23;101949.28;;;19.45;74.50
65131;BME280;51709;54.912;8.316;2023-06-22T06:16:43;101952.91;;;19.74;73.72
65131;BME280;51709;54.912;8.316;2023-06-22T06:22:04;101946.63;;;19.81;73.95
65131;BME280;51709;54.912;8.316;2023-06-22T06:27:25;101949.75;;;19.92;73.92
65131;BME280;51709;54.912;8.316;2023-06-22T06:32:50;101932.97;;;20.23;73.62
65131;BME280;51709;54.912;8.316;2023-06-22T06:38:11;101925.16;;;20.47;73.05
65131;BME280;51709;54.912;8.316;2023-06-22T06:43:31;101931.81;;;20.74;72.80
65131;BME280;51709;54.912;8.316;2023-06-22T06:48:52;101939.59;;;21.06;72.24
65131;BME280;51709;54.912;8.316;2023-06-22T06:54:12;101933.81;;;21.35;71.68
65131;BME280;51709;54.912;8.316;2023-06-22T06:59:33;101940.59;;;21.26;71.80
65131;BME280;51709;54.912;8.316;2023-06-22T07:04:53;101928.16;;;21.16;72.20
65131;BME280;51709;54.912;8.316;2023-06-22T07:10:19;101929.00;;;21.16;72.33
65131;BME280;51709;54.912;8.316;2023-06-22T07:15:39;101936.31;;;21.24;72.16
65131;BME280;51709;54.912;8.316;2023-06-22T07:21:00;101941.03;;;21.30;71.76
65131;BME280;51709;54.912;8.316;2023-06-22T07:26:21;101943.53;;;21.52;71.30
65131;BME280;51709;54.912;8.316;2023-06-22T07:31:42;101945.28;;;21.32;71.22
65131;BME280;51709;54.912;8.316;2023-06-22T07:37:02;101942.00;;;21.50;71.24
65131;BME280;51709;54.912;8.316;2023-06-22T07:42:25;101950.69;;;21.74;70.65
65131;BME280;51709;54.912;8.316;2023-06-22T07:47:46;101954.03;;;21.98;70.05
65131;BME280;51709;54.912;8.316;2023-06-22T07:53:07;101947.59;;;22.38;69.38
65131;BME280;51709;54.912;8.316;2023-06-22T07:58:27;101941.28;;;22.57;68.85
65131;BME280;51709;54.912;8.316;2023-06-22T08:03:48;101943.00;;;22.77;68.07
65131;BME280;51709;54.912;8.316;2023-06-22T08:09:09;101953.25;;;23.03;67.70
65131;BME280;51709;54.912;8.316;2023-06-22T08:14:30;101963.50;;;23.22;67.31
65131;BME280;51709;54.912;8.316;2023-06-22T08:19:50;101967.13;;;23.42;66.78
65131;BME280;51709;54.912;8.316;2023-06-22T08:25:11;101954.94;;;23.63;65.85
65131;BME280;51709;54.912;8.316;2023-06-22T08:30:32;101967.38;;;23.47;66.17
65131;BME280;51709;54.912;8.316;2023-06-22T08:35:52;101969.44;;;23.78;65.79
65131;BME280;51709;54.912;8.316;2023-06-22T08:41:13;101969.69;;;24.34;64.38
65131;BME280;51709;54.912;8.316;2023-06-22T08:46:34;101951.59;;;24.56;63.71
65131;BME280;51709;54.912;8.316;2023-06-22T08:51:54;101964.16;;;24.65;63.25
65131;BME280;51709;54.912;8.316;2023-06-22T08:57:17;101961.56;;;25.01;62.71
65131;BME280;51709;54.912;8.316;2023-06-22T09:02:37;101954.81;;;25.15;62.02
65131;BME280;51709;54.912;8.316;2023-06-22T09:07:59;101954.03;;;25.33;61.45
65131;BME280;51709;54.912;8.316;2023-06-22T09:13:19;101963.25;;;25.58;60.89
65131;BME280;51709;54.912;8.316;2023-06-22T09:18:39;101962.25;;;25.70;60.18
65131;BME280;51709;54.912;8.316;2023-06-22T09:24:00;101949.97;;;26.14;59.57
65131;BME280;51709;54.912;8.316;2023-06-22T09:29:20;101959.38;;;26.61;58.80
65131;BME280;51709;54.912;8.316;2023-06-22T09:34:41;101945.50;;;27.14;57.64
65131;BME280;51709;54.912;8.316;2023-06-22T09:40:02;101941.84;;;27.13;57.60
65131;BME280;51709;54.912;8.316;2023-06-22T09:45:28;101949.28;;;27.19;57.21
65131;BME280;51709;54.912;8.316;2023-06-22T09:50:49;101947.88;;;26.87;57.29
65131;BME280;51709;54.912;8.316;2023-06-22T09:56:10;101948.06;;;26.74;57.35
65131;BME280;51709;54.912;8.316;2023-06-22T10:01:34;101944.03;;;27.11;56.67
65131;BME280;51709;54.912;8.316;2023-06-22T10:06:55;101945.78;;;27.35;55.84
65131;BME280;51709;54.912;8.316;2023-06-22T10:12:16;101947.84;;;27.74;54.92
65131;BME280;51709;54.912;8.316;2023-06-22T10:17:36;101946.59;;;28.05;54.46
65131;BME280;51709;54.912;8.316;2023-06-22T10:22:57;101955.31;;;28.60;53.48
65131;BME280;51709;54.912;8.316;2023-06-22T10:28:19;101948.78;;;28.43;53.71
65131;BME280;51709;54.912;8.316;2023-06-22T10:33:40;101945.13;;;28.54;53.46
65131;BME280;51709;54.912;8.316;2023-06-22T10:39:02;101945.69;;;28.67;53.33
65131;BME280;51709;54.912;8.316;2023-06-22T10:44:23;101944.50;;;28.97;52.72
65131;BME280;51709;54.912;8.316;2023-06-22T10:49:43;101932.34;;;29.19;51.95
65131;BME280;51709;54.912;8.316;2023-06-22T10:55:04;101943.84;;;29.06;52.30
65131;BME280;51709;54.912;8.316;2023-06-22T11:00:24;101946.75;;;29.11;51.57
65131;BME280;51709;54.912;8.316;2023-06-22T11:05:45;101927.16;;;28.66;52.27
65131;BME280;51709;54.912;8.316;2023-06-22T11:11:08;101935.22;;;28.35;52.79
65131;BME280;51709;54.912;8.316;2023-06-22T11:16:28;101928.78;;;27.60;53.63
65131;BME280;51709;54.912;8.316;2023-06-22T11:21:49;101936.06;;;27.49;53.15
65131;BME280;51709;54.912;8.316;2023-06-22T11:27:09;101939.72;;;27.38;52.97
65131;BME280;51709;54.912;8.316;2023-06-22T11:32:30;101928.06;;;27.64;51.93
65131;BME280;51709;54.912;8.316;2023-06-22T11:37:50;101928.13;;;28.04;51.07
65131;BME280;51709;54.912;8.316;2023-06-22T11:43:11;101925.34;;;27.93;50.79
65131;BME280;51709;54.912;8.316;2023-06-22T11:48:31;101927.38;;;28.09;50.25
65131;BME280;51709;54.912;8.316;2023-06-22T11:53:53;101926.56;;;27.85;50.41
65131;BME280;51709;54.912;8.316;2023-06-22T11:59:14;101932.06;;;27.45;50.69
65131;BME280;51709;54.912;8.316;2023-06-22T12:04:34;101940.13;;;26.89;51.17
65131;BME280;51709;54.912;8.316;2023-06-22T12:09:55;101931.50;;;26.61;51.43
65131;BME280;51709;54.912;8.316;2023-06-22T12:15:16;101921.41;;;26.78;50.94
65131;BME280;51709;54.912;8.316;2023-06-22T12:20:37;101925.56;;;26.87;50.46
65131;BME280;51709;54.912;8.316;2023-06-22T12:25:57;101912.00;;;27.60;49.01
65131;BME280;51709;54.912;8.316;2023-06-22T12:31:19;101906.59;;;28.05;48.36
65131;BME280;51709;54.912;8.316;2023-06-22T12:36:39;101905.66;;;28.67;47.35
65131;BME280;51709;54.912;8.316;2023-06-22T12:42:00;101902.41;;;28.75;47.44
65131;BME280;51709;54.912;8.316;2023-06-22T12:47:21;101888.38;;;29.03;46.92
65131;BME280;51709;54.912;8.316;2023-06-22T12:52:42;101889.66;;;28.51;48.08
65131;BME280;51709;54.912;8.316;2023-06-22T12:58:03;101886.56;;;28.80;47.64
65131;BME280;51709;54.912;8.316;2023-06-22T13:03:23;101880.75;;;29.15;47.05
65131;BME280;51709;54.912;8.316;2023-06-22T13:08:46;101882.19;;;29.72;46.09
65131;BME280;51709;54.912;8.316;2023-06-22T13:14:10;101883.03;;;29.56;46.07
65131;BME280;51709;54.912;8.316;2023-06-22T13:19:31;101884.75;;;29.57;46.43
65131;BME280;51709;54.912;8.316;2023-06-22T13:24:52;101880.50;;;29.55;46.21
65131;BME280;51709;54.912;8.316;2023-06-22T13:30:17;101881.00;;;29.30;46.45
65131;BME280;51709;54.912;8.316;2023-06-22T13:35:37;101879.56;;;29.11;46.60
65131;BME280;51709;54.912;8.316;2023-06-22T13:40:58;101876.47;;;29.29;46.16
65131;BME280;51709;54.912;8.316;2023-06-22T13:46:19;101874.19;;;28.60;47.20
65131;BME280;51709;54.912;8.316;2023-06-22T13:51:40;101873.31;;;29.09;46.57
65131;BME280;51709;54.912;8.316;2023-06-22T13:57:00;101875.00;;;29.81;45.80
65131;BME280;51709;54.912;8.316;2023-06-22T14:02:21;101852.78;;;30.45;44.64
65131;BME280;51709;54.912;8.316;2023-06-22T14:07:41;101847.69;;;29.72;45.98
65131;BME280;51709;54.912;8.316;2023-06-22T14:13:02;101861.53;;;29.40;46.62
65131;BME280;51709;54.912;8.316;2023-06-22T14:18:22;101859.63;;;29.46;46.89
65131;BME280;51709;54.912;8.316;2023-06-22T14:23:43;101856.00;;;29.67;46.88
65131;BME280;51709;54.912;8.316;2023-06-22T14:29:09;101849.34;;;29.90;46.73
65131;BME280;51709;54.912;8.316;2023-06-22T14:34:30;101845.66;;;30.11;46.73
65131;BME280;51709;54.912;8.316;2023-06-22T14:39:50;101848.84;;;30.46;46.31
65131;BME280;51709;54.912;8.316;2023-06-22T14:45:10;101852.44;;;30.15;47.15
65131;BME280;51709;54.912;8.316;2023-06-22T14:50:31;101841.66;;;30.28;47.03
65131;BME280;51709;54.912;8.316;2023-06-22T14:55:51;101827.91;;;30.27;47.37
65131;BME280;51709;54.912;8.316;2023-06-22T15:01:16;101824.38;;;31.00;46.34
65131;BME280;51709;54.912;8.316;2023-06-22T15:06:37;101827.56;;;32.37;44.39
65131;BME280;51709;54.912;8.316;2023-06-22T15:11:57;101812.41;;;32.73;43.61
65131;BME280;51709;54.912;8.316;2023-06-22T15:17:18;101813.50;;;32.37;44.79
65131;BME280;51709;54.912;8.316;2023-06-22T15:22:39;101803.13;;;33.92;42.22
65131;BME280;51709;54.912;8.316;2023-06-22T15:27:59;101792.25;;;36.97;38.00
65131;BME280;51709;54.912;8.316;2023-06-22T15:33:19;101797.06;;;37.69;37.29
65131;BME280;51709;54.912;8.316;2023-06-22T15:38:40;101788.50;;;37.15;38.07
65131;BME280;51709;54.912;8.316;2023-06-22T15:44:01;101771.22;;;36.34;39.17
65131;BME280;51709;54.912;8.316;2023-06-22T15:49:21;101770.00;;;35.60;40.20
65131;BME280;51709;54.912;8.316;2023-06-22T15:54:42;101766.88;;;36.41;38.66
65131;BME280;51709;54.912;8.316;2023-06-22T16:00:03;101756.94;;;35.64;39.83
65131;BME280;51709;54.912;8.316;2023-06-22T16:05:26;101751.25;;;33.83;42.03
65131;BME280;51709;54.912;8.316;2023-06-22T16:10:47;101750.44;;;32.28;43.78
65131;BME280;51709;54.912;8.316;2023-06-22T16:16:07;101734.69;;;30.51;46.47
65131;BME280;51709;54.912;8.316;2023-06-22T16:21:28;101722.03;;;29.42;47.81
65131;BME280;51709;54.912;8.316;2023-06-22T16:26:49;101720.59;;;28.80;48.51
65131;BME280;51709;54.912;8.316;2023-06-22T16:32:10;101709.25;;;28.37;49.06
65131;BME280;51709;54.912;8.316;2023-06-22T16:37:31;101698.69;;;27.77;49.97
65131;BME280;51709;54.912;8.316;2023-06-22T16:42:51;101690.34;;;27.26;50.83
65131;BME280;51709;54.912;8.316;2023-06-22T16:48:15;101696.03;;;26.80;51.71
65131;BME280;51709;54.912;8.316;2023-06-22T16:53:35;101693.47;;;26.44;52.08
65131;BME280;51709;54.912;8.316;2023-06-22T16:58:57;101676.81;;;26.03;53.03
65131;BME280;51709;54.912;8.316;2023-06-22T17:04:24;101676.47;;;25.69;53.50
65131;BME280;51709;54.912;8.316;2023-06-22T17:09:49;101676.53;;;25.33;53.82
65131;BME280;51709;54.912;8.316;2023-06-22T17:15:10;101672.09;;;25.14;54.32
65131;BME280;51709;54.912;8.316;2023-06-22T17:20:32;101666.47;;;25.03;54.30
65131;BME280;51709;54.912;8.316;2023-06-22T17:25:53;101665.63;;;24.84;54.68
65131;BME280;51709;54.912;8.316;2023-06-22T17:31:15;101673.59;;;24.56;55.33
65131;BME280;51709;54.912;8.316;2023-06-22T17:36:43;101664.03;;;24.34;55.75
65131;BME280;51709;54.912;8.316;2023-06-22T17:42:06;101650.34;;;24.08;56.38
65131;BME280;51709;54.912;8.316;2023-06-22T17:47:26;101661.84;;;23.87;56.70
65131;BME280;51709;54.912;8.316;2023-06-22T17:58:15;101641.16;;;23.51;57.82
65131;BME280;51709;54.912;8.316;2023-06-22T18:03:36;101638.28;;;23.33;58.15
65131;BME280;51709;54.912;8.316;2023-06-22T18:08:58;101631.75;;;23.15;58.25
65131;BME280;51709;54.912;8.316;2023-06-22T18:14:22;101631.59;;;23.03;58.58
65131;BME280;51709;54.912;8.316;2023-06-22T18:19:43;101628.69;;;22.85;59.29
65131;BME280;51709;54.912;8.316;2023-06-22T18:25:07;101628.53;;;22.73;59.13
65131;BME280;51709;54.912;8.316;2023-06-22T18:30:29;101617.03;;;22.63;59.29
65131;BME280;51709;54.912;8.316;2023-06-22T18:35:50;101614.31;;;22.50;59.84
65131;BME280;51709;54.912;8.316;2023-06-22T18:41:20;101606.88;;;22.31;60.04
65131;BME280;51709;54.912;8.316;2023-06-22T18:46:41;101603.31;;;22.18;60.38
65131;BME280;51709;54.912;8.316;2023-06-22T18:57:30;101585.88;;;21.98;60.67
65131;BME280;51709;54.912;8.316;2023-06-22T19:08:12;101609.66;;;21.59;61.13
65131;BME280;51709;54.912;8.316;2023-06-22T19:13:45;101607.97;;;21.45;61.66
65131;BME280;51709;54.912;8.316;2023-06-22T19:19:12;101614.53;;;21.31;61.69
65131;BME280;51709;54.912;8.316;2023-06-22T19:24:47;101628.31;;;21.25;62.12
65131;BME280;51709;54.912;8.316;2023-06-22T19:30:14;101630.44;;;21.16;62.12
65131;BME280;51709;54.912;8.316;2023-06-22T19:35:37;101622.78;;;21.12;62.27
65131;BME280;51709;54.912;8.316;2023-06-22T19:40:58;101620.84;;;21.06;62.41
65131;BME280;51709;54.912;8.316;2023-06-22T19:46:30;101637.41;;;20.99;62.53
65131;BME280;51709;54.912;8.316;2023-06-22T19:51:51;101651.59;;;20.96;62.75
65131;BME280;51709;54.912;8.316;2023-06-22T19:57:11;101657.53;;;20.93;63.01
65131;BME280;51709;54.912;8.316;2023-06-22T20:02:32;101661.34;;;20.86;63.17
65131;BME280;51709;54.912;8.316;2023-06-22T20:07:53;101678.72;;;20.79;63.38
65131;BME280;51709;54.912;8.316;2023-06-22T20:13:16;101674.69;;;20.82;63.68
65131;BME280;51709;54.912;8.316;2023-06-22T20:18:39;101687.28;;;20.85;63.64
65131;BME280;51709;54.912;8.316;2023-06-22T20:24:04;101690.06;;;20.91;63.61
65131;BME280;51709;54.912;8.316;2023-06-22T20:29:32;101692.81;;;20.91;63.82
65131;BME280;51709;54.912;8.316;2023-06-22T20:35:02;101683.00;;;20.89;63.86
65131;BME280;51709;54.912;8.316;2023-06-22T20:40:25;101691.50;;;20.87;63.82
65131;BME280;51709;54.912;8.316;2023-06-22T20:45:52;101689.41;;;20.89;63.85
65131;BME280;51709;54.912;8.316;2023-06-22T20:51:16;101692.41;;;20.94;63.99
65131;BME280;51709;54.912;8.316;2023-06-22T20:56:38;101679.00;;;20.91;64.37
65131;BME280;51709;54.912;8.316;2023-06-22T21:01:58;101666.44;;;20.89;64.13
65131;BME280;51709;54.912;8.316;2023-06-22T21:07:19;101664.75;;;20.88;64.47
65131;BME280;51709;54.912;8.316;2023-06-22T21:12:39;101656.00;;;20.84;64.63
65131;BME280;51709;54.912;8.316;2023-06-22T21:18:00;101660.47;;;20.85;64.91
65131;BME280;51709;54.912;8.316;2023-06-22T21:23:21;101650.28;;;20.86;65.01
65131;BME280;51709;54.912;8.316;2023-06-22T21:28:41;101648.16;;;20.88;65.09
65131;BME280;51709;54.912;8.316;2023-06-22T21:34:02;101648.16;;;20.88;65.19
65131;BME280;51709;54.912;8.316;2023-06-22T21:39:22;101650.94;;;20.88;65.05
65131;BME280;51709;54.912;8.316;2023-06-22T21:44:46;101650.72;;;20.89;65.26
65131;BME280;51709;54.912;8.316;2023-06-22T21:50:07;101652.66;;;20.95;65.33
65131;BME280;51709;54.912;8.316;2023-06-22T21:55:28;101654.56;;;20.95;65.42
65131;BME280;51709;54.912;8.316;2023-06-22T22:00:48;101645.41;;;20.94;65.51
65131;BME280;51709;54.912;8.316;2023-06-22T22:06:09;101644.97;;;20.84;65.69
65131;BME280;51709;54.912;8.316;2023-06-22T22:11:29;101638.13;;;20.80;65.88
65131;BME280;51709;54.912;8.316;2023-06-22T22:16:50;101648.09;;;20.74;66.13
65131;BME280;51709;54.912;8.316;2023-06-22T22:22:11;101636.59;;;20.71;66.30
65131;BME280;51709;54.912;8.316;2023-06-22T22:27:32;101633.59;;;20.66;66.31
65131;BME280;51709;54.912;8.316;2023-06-22T22:32:52;101633.16;;;20.62;66.58
65131;BME280;51709;54.912;8.316;2023-06-22T22:38:13;101620.44;;;20.61;66.79
65131;BME280;51709;54.912;8.316;2023-06-22T22:43:33;101620.81;;;20.58;66.68
65131;BME280;51709;54.912;8.316;2023-06-22T22:48:54;101608.72;;;20.59;66.75
65131;BME280;51709;54.912;8.316;2023-06-22T22:54:15;101613.59;;;20.57;66.75
65131;BME280;51709;54.912;8.316;2023-06-22T22:59:35;101614.84;;;20.55;66.71
65131;BME280;51709;54.912;8.316;2023-06-22T23:04:58;101612.31;;;20.53;66.84
65131;BME280;51709;54.912;8.316;2023-06-22T23:10:18;101611.44;;;20.53;66.76
65131;BME280;51709;54.912;8.316;2023-06-22T23:15:39;101605.47;;;20.49;66.69
65131;BME280;51709;54.912;8.316;2023-06-22T23:21:00;101615.22;;;20.45;66.52
65131;BME280;51709;54.912;8.316;2023-06-22T23:26:21;101617.34;;;20.43;66.54
65131;BME280;51709;54.912;8.316;2023-06-22T23:31:41;101612.44;;;20.39;66.50
65131;BME280;51709;54.912;8.316;2023-06-22T23:37:03;101615.59;;;20.36;66.36
65131;BME280;51709;54.912;8.316;2023-06-22T23:42:23;101623.66;;;20.31;66.22
65131;BME280;51709;54.912;8.316;2023-06-22T23:47:45;101631.28;;;20.29;65.99
65131;BME280;51709;54.912;8.316;2023-06-22T23:53:06;101628.72;;;20.27;65.94
65131;BME280;51709;54.912;8.316;2023-06-22T23:58:29;101634.44;;;20.26;65.69
